메인 페이지
METAR-TAF:

METAR-TAF

공항 :

키슬러 공군 기지

빌럭시, 미시시피, 미국

위도: 30-25N, 경도: 088-55W, 고도: 10m

현재 날씨관측

예보는 28분 전, 11:56시(UTC)에 발표되었습니다.
북동3kt
온도 9°C
습도 93%
기압 1021 hPa
시정: 16.1km
맑음

METAR: KBIX 191156Z AUTO 04003KT 10SM CLR 09/08 A3015 RMK AO2 SLP213 T00920080 10109 20088 51004 $

시각: 06:24 (12:24 UTC)

예보

예보는 2 시간 24분 전, 10:00시(UTC)에 발표되었습니다.
예보 대상 시간: 19일 10시부터 20일 16시까지 (UTC)
여러 방향의 바람 6kt
시정 10km 이상
고도 20000ft 상공 구름 조금
전환 중
19일 21시부터 19일 22시까지 (UTC)
6kt
시정 10km 이상
고도 5000ft 상공 구름 많음
시계 내 소나기
전환 중
19일 23시부터 19일 24시까지 (UTC)
서남서6kt
시정 10km 이상
고도 5000ft 상공 구름 많음
전환 중
20일 11시부터 20일 12시까지 (UTC)
9kt
시정 10km 이상
고도 3000ft 상공 구름 많음

TAF: KBIX 191000Z 1910/2016 VRB06KT 9999 FEW200 QNH3009INS BECMG 1921/1922 18006KT 9999 VCSH BKN050 QNH3010INS BECMG 1923/1924 24006KT 9999 NSW BKN050 QNH3012INS BECMG 2011/2012 35009KT 9999 BKN030 QNH3014INS TX20/1918Z TN09/1910Z

4,000개 이상의 공항 관측 자료 및 예보 (METAR 및 TAF 보고).

지도상에서 검색 가능한 기상관측소가 노란 점과 빨간 점으로 표시되어 있습니다.

기상관측소 명을 보려면 표시 위로 마우스를 이동하세요.

날씨 관측과 예보를 보려면 클릭하세요.

지도 변경 : 확대하려면 엑스 표시가 있는 녹색 버튼, 축소하려면 빼기 표시가 있는 녹색 버튼, 다음 페이지의 지도를 보려면 녹색 화살표를 클릭하세요.


METAR-TAF: